PWSweather.com
Personal Weather Stations
Station Observations
KETX01
Ketx, PatraGR 26331

KetxPatraGR 26331

Lat: 38.238889, Lon: 21.751111

Elevation: 56

Station Type: Davis Instruments / Vantage Pro2 Plus

http://meteopatras.eu

Latest ConditionsUpdated 7:35:01 PM GMT+02:02 Friday, Nov 17, 2017
Currently Today's Max Today's Min Today's Average
Temperature 59.5°F15.3°C 66.7°F19.3°C 56.3°F13.5°C 61.5°F16.4°C
Dew Point 52.3°F11.3°C 56.7°F13.7°C 46.7°F8.2°C 53.2°F11.8°C
Winds Calm Calm 8.1 mph SE13.0 kmh SE - 2.1 mph 3.4 kmh
Wind Gusts -- 11.5 mph18.5 kmh - -
Humidity 77% 92% 49% 75%
Pressure 29.87 in1011.5 mb 29.93 in1013.5 mb 29.85 in1010.8 mb -
Precipitation - 0.41 in10.4 mm - -
Hour Temp Dew Point Humidity Winds Wind Gusts Pressure Precip Precip Rate Daily Precip Total
07:35 PM 59.5°F15.3°C 52.3°F11.3°C 77% Calm Calm -- 29.87 in1011.5 mb - 0.00 in0.0 mm 0.41 in10.4 mm
07:30 PM 59.7°F15.4°C 52.5°F11.4°C 77% 2.3 mph NNE3.7 kmh NNE 3.5 mph5.6 kmh 29.87 in1011.5 mb - 0.00 in0.0 mm 0.41 in10.4 mm
07:25 PM 59.9°F15.5°C 53.0°F11.7°C 78% Calm Calm -- 29.87 in1011.5 mb - 0.00 in0.0 mm 0.41 in10.4 mm
07:20 PM 60.1°F15.6°C 53.2°F11.8°C 78% Calm Calm -- 29.87 in1011.5 mb - 0.00 in0.0 mm 0.41 in10.4 mm
07:15 PM 60.2°F15.7°C 53.0°F11.7°C 77% 1.2 mph NNE1.9 kmh NNE 1.2 mph1.9 kmh 29.87 in1011.5 mb - 0.00 in0.0 mm 0.41 in10.4 mm
07:10 PM 60.3°F15.7°C 53.1°F11.7°C 77% Calm Calm 2.3 mph3.7 kmh 29.87 in1011.5 mb - 0.00 in0.0 mm 0.41 in10.4 mm
07:05 PM 60.3°F15.7°C 53.1°F11.7°C 77% 1.2 mph NNE1.9 kmh NNE 1.2 mph1.9 kmh 29.87 in1011.5 mb - 0.00 in0.0 mm 0.41 in10.4 mm
07:00 PM 60.4°F15.8°C 53.5°F11.9°C 78% 2.3 mph NNE3.7 kmh NNE 3.5 mph5.6 kmh 29.87 in1011.5 mb - 0.00 in0.0 mm 0.41 in10.4 mm
06:55 PM 60.7°F15.9°C 54.1°F12.3°C 79% 1.2 mph NNE1.9 kmh NNE 2.3 mph3.7 kmh 29.87 in1011.5 mb - 0.00 in0.0 mm 0.41 in10.4 mm
06:50 PM 61.0°F16.1°C 54.4°F12.4°C 79% Calm Calm -- 29.87 in1011.5 mb - 0.00 in0.0 mm 0.41 in10.4 mm
06:45 PM 61.1°F16.2°C 54.2°F12.3°C 78% Calm Calm -- 29.88 in1011.9 mb - 0.00 in0.0 mm 0.41 in10.4 mm
06:40 PM 61.3°F16.3°C 54.7°F12.6°C 79% Calm Calm -- 29.88 in1011.9 mb - 0.00 in0.0 mm 0.41 in10.4 mm
06:35 PM 61.4°F16.3°C 54.5°F12.5°C 78% Calm Calm -- 29.88 in1011.9 mb - 0.00 in0.0 mm 0.41 in10.4 mm
06:30 PM 61.6°F16.4°C 54.7°F12.6°C 78% Calm Calm -- 29.87 in1011.5 mb - 0.00 in0.0 mm 0.41 in10.4 mm
06:25 PM 61.6°F16.4°C 54.3°F12.4°C 77% Calm Calm -- 29.87 in1011.5 mb - 0.00 in0.0 mm 0.41 in10.4 mm
06:20 PM 61.7°F16.5°C 54.4°F12.4°C 77% Calm Calm -- 29.87 in1011.5 mb - 0.00 in0.0 mm 0.41 in10.4 mm
06:15 PM 61.7°F16.5°C 54.1°F12.3°C 76% Calm Calm -- 29.87 in1011.5 mb - 0.00 in0.0 mm 0.41 in10.4 mm
06:10 PM 61.8°F16.6°C 54.2°F12.3°C 76% Calm Calm -- 29.87 in1011.5 mb - 0.00 in0.0 mm 0.41 in10.4 mm
06:05 PM 61.9°F16.6°C 54.3°F12.4°C 76% 2.3 mph NNE3.7 kmh NNE 3.5 mph5.6 kmh 29.87 in1011.5 mb - 0.00 in0.0 mm 0.41 in10.4 mm
06:00 PM 62.2°F16.8°C 54.5°F12.5°C 76% 2.3 mph NNE3.7 kmh NNE 3.5 mph5.6 kmh 29.87 in1011.5 mb - 0.00 in0.0 mm 0.41 in10.4 mm
05:55 PM 62.6°F17.0°C 55.3°F12.9°C 77% Calm Calm -- 29.87 in1011.5 mb - 0.00 in0.0 mm 0.41 in10.4 mm
05:50 PM 62.8°F17.1°C 55.1°F12.8°C 76% Calm Calm -- 29.87 in1011.5 mb - 0.00 in0.0 mm 0.41 in10.4 mm
05:45 PM 62.9°F17.2°C 55.2°F12.9°C 76% Calm Calm -- 29.86 in1011.2 mb - 0.00 in0.0 mm 0.41 in10.4 mm
05:40 PM 63.1°F17.3°C 55.4°F13.0°C 76% Calm Calm -- 29.87 in1011.5 mb - 0.00 in0.0 mm 0.41 in10.4 mm
05:35 PM 63.2°F17.3°C 55.1°F12.8°C 75% Calm Calm -- 29.86 in1011.2 mb - 0.00 in0.0 mm 0.41 in10.4 mm
05:30 PM 63.3°F17.4°C 55.2°F12.9°C 75% Calm Calm -- 29.86 in1011.2 mb - 0.00 in0.0 mm 0.41 in10.4 mm
05:25 PM 63.4°F17.4°C 55.3°F12.9°C 75% Calm Calm -- 29.86 in1011.2 mb - 0.00 in0.0 mm 0.41 in10.4 mm
05:20 PM 63.6°F17.6°C 55.5°F13.1°C 75% Calm Calm -- 29.86 in1011.2 mb - 0.00 in0.0 mm 0.41 in10.4 mm
05:15 PM 63.9°F17.7°C 56.2°F13.4°C 76% Calm Calm -- 29.86 in1011.2 mb - 0.00 in0.0 mm 0.41 in10.4 mm
05:10 PM 64.2°F17.9°C 56.1°F13.4°C 75% Calm Calm -- 29.87 in1011.5 mb - 0.00 in0.0 mm 0.41 in10.4 mm
05:05 PM 64.3°F17.9°C 55.8°F13.2°C 74% Calm Calm -- 29.86 in1011.2 mb - 0.00 in0.0 mm 0.41 in10.4 mm
05:00 PM 64.3°F17.9°C 55.5°F13.1°C 73% Calm Calm -- 29.86 in1011.2 mb - 0.00 in0.0 mm 0.41 in10.4 mm
04:55 PM 64.3°F17.9°C 54.7°F12.6°C 71% Calm Calm -- 29.86 in1011.2 mb - 0.00 in0.0 mm 0.41 in10.4 mm
04:50 PM 64.3°F17.9°C 54.3°F12.4°C 70% Calm Calm -- 29.87 in1011.5 mb - 0.00 in0.0 mm 0.41 in10.4 mm
04:45 PM 64.4°F18.0°C 54.8°F12.7°C 71% Calm Calm -- 29.87 in1011.5 mb - 0.00 in0.0 mm 0.41 in10.4 mm
04:40 PM 64.4°F18.0°C 54.4°F12.4°C 70% 2.3 mph N3.7 kmh N 3.5 mph5.6 kmh 29.86 in1011.2 mb - 0.00 in0.0 mm 0.41 in10.4 mm
04:35 PM 64.4°F18.0°C 54.4°F12.4°C 70% 1.2 mph N1.9 kmh N 3.5 mph5.6 kmh 29.86 in1011.2 mb - 0.00 in0.0 mm 0.41 in10.4 mm
04:30 PM 64.4°F18.0°C 54.4°F12.4°C 70% Calm Calm 2.3 mph3.7 kmh 29.86 in1011.2 mb - 0.00 in0.0 mm 0.41 in10.4 mm
04:25 PM 64.3°F17.9°C 53.5°F11.9°C 68% 3.5 mph N5.6 kmh N 3.5 mph5.6 kmh 29.86 in1011.2 mb - 0.00 in0.0 mm 0.41 in10.4 mm
04:20 PM 64.4°F18.0°C 54.4°F12.4°C 70% 2.3 mph N3.7 kmh N 3.5 mph5.6 kmh 29.86 in1011.2 mb - 0.00 in0.0 mm 0.41 in10.4 mm
04:15 PM 64.6°F18.1°C 54.2°F12.3°C 69% 1.2 mph N1.9 kmh N 3.5 mph5.6 kmh 29.86 in1011.2 mb - 0.00 in0.0 mm 0.41 in10.4 mm
04:10 PM 64.6°F18.1°C 53.8°F12.1°C 68% 3.5 mph N5.6 kmh N 4.6 mph7.4 kmh 29.86 in1011.2 mb - 0.00 in0.0 mm 0.41 in10.4 mm
04:05 PM 64.7°F18.2°C 54.7°F12.6°C 70% 3.5 mph N5.6 kmh N 4.6 mph7.4 kmh 29.86 in1011.2 mb - 0.00 in0.0 mm 0.41 in10.4 mm
04:00 PM 64.8°F18.2°C 54.4°F12.4°C 69% 2.3 mph NNW3.7 kmh NNW 3.5 mph5.6 kmh 29.86 in1011.2 mb - 0.00 in0.0 mm 0.41 in10.4 mm
03:55 PM 64.9°F18.3°C 54.9°F12.7°C 70% 2.3 mph NW3.7 kmh NW 3.5 mph5.6 kmh 29.86 in1011.2 mb - 0.00 in0.0 mm 0.41 in10.4 mm
03:50 PM 65.1°F18.4°C 54.7°F12.6°C 69% 2.3 mph NW3.7 kmh NW 3.5 mph5.6 kmh 29.86 in1011.2 mb - 0.00 in0.0 mm 0.41 in10.4 mm
03:45 PM 65.2°F18.4°C 54.4°F12.4°C 68% 2.3 mph NW3.7 kmh NW 3.5 mph5.6 kmh 29.86 in1011.2 mb - 0.00 in0.0 mm 0.41 in10.4 mm
03:40 PM 65.3°F18.5°C 53.7°F12.1°C 66% 1.2 mph NW1.9 kmh NW 3.5 mph5.6 kmh 29.86 in1011.2 mb - 0.00 in0.0 mm 0.41 in10.4 mm
03:35 PM 65.5°F18.6°C 53.9°F12.2°C 66% 3.5 mph NNW5.6 kmh NNW 8.1 mph13.0 kmh 29.86 in1011.2 mb - 0.00 in0.0 mm 0.41 in10.4 mm
03:30 PM 65.8°F18.8°C 53.7°F12.1°C 65% 3.5 mph N5.6 kmh N 6.9 mph11.1 kmh 29.86 in1011.2 mb - 0.00 in0.0 mm 0.41 in10.4 mm
03:25 PM 66.1°F18.9°C 54.0°F12.2°C 65% 4.6 mph NE7.4 kmh NE 6.9 mph11.1 kmh 29.86 in1011.2 mb - 0.00 in0.0 mm 0.41 in10.4 mm
03:20 PM 66.2°F19.0°C 53.7°F12.1°C 64% 4.6 mph NW7.4 kmh NW 8.1 mph13.0 kmh 29.86 in1011.2 mb - 0.00 in0.0 mm 0.41 in10.4 mm
03:15 PM 66.0°F18.9°C 53.0°F11.7°C 63% 5.8 mph N9.3 kmh N 8.1 mph13.0 kmh 29.86 in1011.2 mb - 0.00 in0.0 mm 0.41 in10.4 mm
03:10 PM 65.8°F18.8°C 54.1°F12.3°C 66% 3.5 mph N5.6 kmh N 5.8 mph9.3 kmh 29.86 in1011.2 mb - 0.00 in0.0 mm 0.41 in10.4 mm
03:05 PM 65.8°F18.8°C 53.3°F11.8°C 64% 5.8 mph N9.3 kmh N 5.8 mph9.3 kmh 29.86 in1011.2 mb - 0.00 in0.0 mm 0.41 in10.4 mm
03:00 PM 65.7°F18.7°C 53.6°F12.0°C 65% 4.6 mph N7.4 kmh N 8.1 mph13.0 kmh 29.86 in1011.2 mb - 0.00 in0.0 mm 0.41 in10.4 mm
02:55 PM 65.8°F18.8°C 52.8°F11.6°C 63% 3.5 mph N5.6 kmh N 5.8 mph9.3 kmh 29.86 in1011.2 mb - 0.00 in0.0 mm 0.41 in10.4 mm
02:50 PM 65.8°F18.8°C 52.9°F11.6°C 63% 4.6 mph N7.4 kmh N 4.6 mph7.4 kmh 29.86 in1011.2 mb - 0.00 in0.0 mm 0.41 in10.4 mm
02:45 PM 66.1°F18.9°C 53.6°F12.0°C 64% 4.6 mph NNW7.4 kmh NNW 5.8 mph9.3 kmh 29.86 in1011.2 mb - 0.00 in0.0 mm 0.41 in10.4 mm
02:40 PM 66.2°F19.0°C 53.3°F11.8°C 63% 4.6 mph N7.4 kmh N 6.9 mph11.1 kmh 29.86 in1011.2 mb - 0.00 in0.0 mm 0.41 in10.4 mm
02:35 PM 66.6°F19.2°C 54.0°F12.2°C 64% 4.6 mph N7.4 kmh N 8.1 mph13.0 kmh 29.86 in1011.2 mb - 0.01 in0.3 mm 0.41 in10.4 mm
02:30 PM 66.3°F19.1°C 54.2°F12.3°C 65% 3.5 mph N5.6 kmh N 4.6 mph7.4 kmh 29.86 in1011.2 mb - 0.00 in0.0 mm 0.40 in10.2 mm
02:25 PM 66.1°F18.9°C 54.4°F12.4°C 66% 4.6 mph N7.4 kmh N 4.6 mph7.4 kmh 29.86 in1011.2 mb - 0.00 in0.0 mm 0.40 in10.2 mm
02:20 PM 66.0°F18.9°C 54.7°F12.6°C 67% 3.5 mph N5.6 kmh N 3.5 mph5.6 kmh 29.86 in1011.2 mb - 0.00 in0.0 mm 0.40 in10.2 mm
02:15 PM 65.7°F18.7°C 54.4°F12.4°C 67% 3.5 mph N5.6 kmh N 4.6 mph7.4 kmh 29.86 in1011.2 mb - 0.00 in0.0 mm 0.40 in10.2 mm
02:10 PM 65.6°F18.7°C 54.8°F12.7°C 68% 4.6 mph NNW7.4 kmh NNW 8.1 mph13.0 kmh 29.86 in1011.2 mb - 0.00 in0.0 mm 0.40 in10.2 mm
02:05 PM 65.5°F18.6°C 55.0°F12.8°C 69% 4.6 mph NNW7.4 kmh NNW 8.1 mph13.0 kmh 29.87 in1011.5 mb - 0.00 in0.0 mm 0.40 in10.2 mm
02:00 PM 65.1°F18.4°C 55.5°F13.1°C 71% 3.5 mph NNE5.6 kmh NNE 5.8 mph9.3 kmh 29.87 in1011.5 mb - 0.00 in0.0 mm 0.40 in10.2 mm
01:55 PM 64.7°F18.2°C 55.5°F13.1°C 72% 3.5 mph N5.6 kmh N 4.6 mph7.4 kmh 29.87 in1011.5 mb - 0.00 in0.0 mm 0.40 in10.2 mm
01:50 PM 64.7°F18.2°C 55.5°F13.1°C 72% 1.2 mph NW1.9 kmh NW 3.5 mph5.6 kmh 29.87 in1011.5 mb - 0.00 in0.0 mm 0.40 in10.2 mm
01:45 PM 64.9°F18.3°C 54.9°F12.7°C 70% 3.5 mph N5.6 kmh N 5.8 mph9.3 kmh 29.87 in1011.5 mb - 0.00 in0.0 mm 0.40 in10.2 mm
01:40 PM 65.1°F18.4°C 55.1°F12.8°C 70% 2.3 mph N3.7 kmh N 3.5 mph5.6 kmh 29.87 in1011.5 mb - 0.00 in0.0 mm 0.40 in10.2 mm
01:35 PM 65.0°F18.3°C 55.0°F12.8°C 70% 3.5 mph NNE5.6 kmh NNE 8.1 mph13.0 kmh 29.87 in1011.5 mb - 0.00 in0.0 mm 0.40 in10.2 mm
01:30 PM 65.0°F18.3°C 54.6°F12.6°C 69% 5.8 mph NNW9.3 kmh NNW 10.4 mph16.7 kmh 29.88 in1011.9 mb - 0.00 in0.0 mm 0.40 in10.2 mm
01:25 PM 64.8°F18.2°C 54.8°F12.7°C 70% 3.5 mph NNE5.6 kmh NNE 4.6 mph7.4 kmh 29.88 in1011.9 mb - 0.00 in0.0 mm 0.40 in10.2 mm
01:20 PM 64.3°F17.9°C 55.1°F12.8°C 72% 4.6 mph N7.4 kmh N 9.2 mph14.8 kmh 29.88 in1011.9 mb - 0.00 in0.0 mm 0.40 in10.2 mm
01:15 PM 63.8°F17.7°C 53.8°F12.1°C 70% 4.6 mph N7.4 kmh N 8.1 mph13.0 kmh 29.88 in1011.9 mb - 0.00 in0.0 mm 0.40 in10.2 mm
01:10 PM 63.4°F17.4°C 54.6°F12.6°C 73% 2.3 mph N3.7 kmh N 3.5 mph5.6 kmh 29.88 in1011.9 mb - 0.00 in0.0 mm 0.40 in10.2 mm
01:05 PM 63.2°F17.3°C 54.4°F12.4°C 73% 4.6 mph N7.4 kmh N 5.8 mph9.3 kmh 29.88 in1011.9 mb - 0.00 in0.0 mm 0.40 in10.2 mm
01:00 PM 63.0°F17.2°C 54.6°F12.6°C 74% 3.5 mph N5.6 kmh N 5.8 mph9.3 kmh 29.88 in1011.9 mb - 0.00 in0.0 mm 0.40 in10.2 mm
12:55 PM 62.8°F17.1°C 54.8°F12.7°C 75% 2.3 mph NNE3.7 kmh NNE 3.5 mph5.6 kmh 29.88 in1011.9 mb - 0.00 in0.0 mm 0.40 in10.2 mm
12:50 PM 62.8°F17.1°C 55.1°F12.8°C 76% 4.6 mph N7.4 kmh N 8.1 mph13.0 kmh 29.88 in1011.9 mb - 0.00 in0.0 mm 0.40 in10.2 mm
12:45 PM 62.7°F17.1°C 55.4°F13.0°C 77% 3.5 mph N5.6 kmh N 5.8 mph9.3 kmh 29.89 in1012.2 mb - 0.00 in0.0 mm 0.40 in10.2 mm
12:40 PM 62.7°F17.1°C 55.7°F13.2°C 78% 3.5 mph NNW5.6 kmh NNW 4.6 mph7.4 kmh 29.88 in1011.9 mb - 0.00 in0.0 mm 0.40 in10.2 mm
12:35 PM 62.5°F16.9°C 56.6°F13.7°C 81% 3.5 mph N5.6 kmh N 10.4 mph16.7 kmh 29.88 in1011.9 mb - 0.00 in0.0 mm 0.40 in10.2 mm
12:30 PM 62.3°F16.8°C 56.7°F13.7°C 82% 2.3 mph NNW3.7 kmh NNW 4.6 mph7.4 kmh 29.89 in1012.2 mb - 0.00 in0.0 mm 0.40 in10.2 mm
12:25 PM 62.2°F16.8°C 56.6°F13.7°C 82% 3.5 mph NNW5.6 kmh NNW 4.6 mph7.4 kmh 29.89 in1012.2 mb - 0.00 in0.0 mm 0.40 in10.2 mm
12:20 PM 61.9°F16.6°C 56.7°F13.7°C 83% 3.5 mph N5.6 kmh N 4.6 mph7.4 kmh 29.89 in1012.2 mb - 0.00 in0.0 mm 0.40 in10.2 mm
12:15 PM 61.7°F16.5°C 56.5°F13.6°C 83% 2.3 mph NNW3.7 kmh NNW 3.5 mph5.6 kmh 29.89 in1012.2 mb - 0.00 in0.0 mm 0.40 in10.2 mm
12:10 PM 61.5°F16.4°C 56.3°F13.5°C 83% 3.5 mph NNW5.6 kmh NNW 3.5 mph5.6 kmh 29.90 in1012.5 mb - 0.00 in0.0 mm 0.40 in10.2 mm
12:05 PM 61.3°F16.3°C 56.1°F13.4°C 83% 1.2 mph N1.9 kmh N 3.5 mph5.6 kmh 29.90 in1012.5 mb - 0.00 in0.0 mm 0.40 in10.2 mm
12:00 PM 61.3°F16.3°C 56.0°F13.3°C 83% 3.5 mph N5.6 kmh N 3.5 mph5.6 kmh 29.91 in1012.9 mb - 0.00 in0.0 mm 0.40 in10.2 mm
11:55 AM 61.0°F16.1°C 56.2°F13.4°C 84% 2.3 mph NNE3.7 kmh NNE 3.5 mph5.6 kmh 29.91 in1012.9 mb - 0.00 in0.0 mm 0.40 in10.2 mm
11:50 AM 60.8°F16.0°C 55.9°F13.3°C 84% 1.2 mph NNE1.9 kmh NNE 2.3 mph3.7 kmh 29.91 in1012.9 mb - 0.00 in0.0 mm 0.40 in10.2 mm
11:45 AM 60.7°F15.9°C 55.5°F13.1°C 83% 3.5 mph NNE5.6 kmh NNE 3.5 mph5.6 kmh 29.91 in1012.9 mb - 0.00 in0.0 mm 0.40 in10.2 mm
11:40 AM 60.5°F15.8°C 55.0°F12.8°C 82% 2.3 mph NNE3.7 kmh NNE 3.5 mph5.6 kmh 29.91 in1012.9 mb - 0.00 in0.0 mm 0.40 in10.2 mm
11:35 AM 60.5°F15.8°C 55.3°F12.9°C 83% 3.5 mph N5.6 kmh N 3.5 mph5.6 kmh 29.91 in1012.9 mb - 0.00 in0.0 mm 0.40 in10.2 mm
11:30 AM 60.4°F15.8°C 55.5°F13.1°C 84% 3.5 mph NNE5.6 kmh NNE 4.6 mph7.4 kmh 29.91 in1012.9 mb - 0.00 in0.0 mm 0.40 in10.2 mm
11:25 AM 60.3°F15.7°C 55.4°F13.0°C 84% 2.3 mph N3.7 kmh N 3.5 mph5.6 kmh 29.91 in1012.9 mb - 0.00 in0.0 mm 0.40 in10.2 mm
11:20 AM 60.3°F15.7°C 55.1°F12.8°C 83% 3.5 mph N5.6 kmh N 3.5 mph5.6 kmh 29.91 in1012.9 mb - 0.00 in0.0 mm 0.40 in10.2 mm
11:15 AM 60.1°F15.6°C 54.9°F12.7°C 83% 3.5 mph N5.6 kmh N 3.5 mph5.6 kmh 29.91 in1012.9 mb - 0.00 in0.0 mm 0.40 in10.2 mm
11:10 AM 60.1°F15.6°C 55.0°F12.8°C 83% 2.3 mph N3.7 kmh N 3.5 mph5.6 kmh 29.91 in1012.9 mb - 0.00 in0.0 mm 0.40 in10.2 mm
11:05 AM 60.1°F15.6°C 55.2°F12.9°C 84% Calm Calm 2.3 mph3.7 kmh 29.91 in1012.9 mb - 0.00 in0.0 mm 0.40 in10.2 mm
11:00 AM 60.0°F15.6°C 54.8°F12.7°C 83% Calm Calm -- 29.91 in1012.9 mb - 0.00 in0.0 mm 0.40 in10.2 mm
10:55 AM 59.9°F15.5°C 54.4°F12.4°C 82% 2.3 mph NNW3.7 kmh NNW 3.5 mph5.6 kmh 29.91 in1012.9 mb - 0.00 in0.0 mm 0.40 in10.2 mm
10:50 AM 59.9°F15.5°C 54.4°F12.4°C 82% 2.3 mph NNW3.7 kmh NNW 3.5 mph5.6 kmh 29.92 in1013.2 mb - 0.00 in0.0 mm 0.40 in10.2 mm
10:45 AM 59.9°F15.5°C 54.4°F12.4°C 82% Calm Calm -- 29.91 in1012.9 mb - 0.00 in0.0 mm 0.40 in10.2 mm
10:40 AM 59.9°F15.5°C 54.1°F12.3°C 81% Calm Calm 3.5 mph5.6 kmh 29.91 in1012.9 mb - 0.00 in0.0 mm 0.40 in10.2 mm
10:35 AM 59.7°F15.4°C 54.5°F12.5°C 83% Calm Calm 3.5 mph5.6 kmh 29.91 in1012.9 mb - 0.00 in0.0 mm 0.40 in10.2 mm
10:30 AM 59.3°F15.2°C 54.1°F12.3°C 83% Calm Calm -- 29.91 in1012.9 mb - 0.00 in0.0 mm 0.40 in10.2 mm
10:25 AM 58.9°F14.9°C 53.7°F12.1°C 83% Calm Calm -- 29.91 in1012.9 mb - 0.00 in0.0 mm 0.40 in10.2 mm
10:20 AM 58.4°F14.7°C 53.6°F12.0°C 84% 2.3 mph NNE3.7 kmh NNE 3.5 mph5.6 kmh 29.91 in1012.9 mb - 0.00 in0.0 mm 0.40 in10.2 mm
10:15 AM 58.1°F14.5°C 53.9°F12.2°C 86% 1.2 mph ENE1.9 kmh ENE 3.5 mph5.6 kmh 29.91 in1012.9 mb - 0.00 in0.0 mm 0.40 in10.2 mm
10:10 AM 58.0°F14.4°C 53.9°F12.2°C 86% 2.3 mph ENE3.7 kmh ENE 4.6 mph7.4 kmh 29.91 in1012.9 mb - 0.00 in0.0 mm 0.40 in10.2 mm
10:05 AM 57.9°F14.4°C 53.7°F12.1°C 86% Calm Calm 2.3 mph3.7 kmh 29.91 in1012.9 mb - 0.00 in0.0 mm 0.40 in10.2 mm
10:00 AM 57.8°F14.3°C 53.6°F12.0°C 86% 1.2 mph NE1.9 kmh NE 4.6 mph7.4 kmh 29.91 in1012.9 mb - 0.00 in0.0 mm 0.40 in10.2 mm
09:55 AM 57.8°F14.3°C 54.3°F12.4°C 88% 1.2 mph ENE1.9 kmh ENE 3.5 mph5.6 kmh 29.91 in1012.9 mb - 0.00 in0.0 mm 0.40 in10.2 mm
09:50 AM 57.7°F14.3°C 53.9°F12.2°C 87% Calm Calm -- 29.92 in1013.2 mb - 0.00 in0.0 mm 0.40 in10.2 mm
09:45 AM 57.6°F14.2°C 53.8°F12.1°C 87% 2.3 mph ENE3.7 kmh ENE 3.5 mph5.6 kmh 29.91 in1012.9 mb - 0.00 in0.0 mm 0.40 in10.2 mm
09:40 AM 57.6°F14.2°C 53.4°F11.9°C 86% Calm Calm 3.5 mph5.6 kmh 29.91 in1012.9 mb - 0.00 in0.0 mm 0.40 in10.2 mm
09:35 AM 57.5°F14.2°C 53.3°F11.8°C 86% Calm Calm -- 29.92 in1013.2 mb - 0.00 in0.0 mm 0.40 in10.2 mm
09:30 AM 57.4°F14.1°C 53.3°F11.8°C 86% 1.2 mph ENE1.9 kmh ENE -- 29.91 in1012.9 mb - 0.00 in0.0 mm 0.40 in10.2 mm
09:25 AM 57.4°F14.1°C 52.9°F11.6°C 85% 1.2 mph ENE1.9 kmh ENE 3.5 mph5.6 kmh 29.91 in1012.9 mb - 0.00 in0.0 mm 0.40 in10.2 mm
09:20 AM 57.2°F14.0°C 53.0°F11.7°C 86% 1.2 mph NE1.9 kmh NE 2.3 mph3.7 kmh 29.91 in1012.9 mb - 0.00 in0.0 mm 0.40 in10.2 mm
09:15 AM 57.0°F13.9°C 53.1°F11.7°C 87% 3.5 mph N5.6 kmh N 4.6 mph7.4 kmh 29.91 in1012.9 mb - 0.00 in0.0 mm 0.40 in10.2 mm
09:10 AM 56.9°F13.8°C 53.1°F11.7°C 87% 1.2 mph E1.9 kmh E 3.5 mph5.6 kmh 29.91 in1012.9 mb - 0.00 in0.0 mm 0.40 in10.2 mm
09:05 AM 56.9°F13.8°C 53.1°F11.7°C 87% Calm Calm 2.3 mph3.7 kmh 29.91 in1012.9 mb - 0.00 in0.0 mm 0.40 in10.2 mm
09:00 AM 57.0°F13.9°C 53.2°F11.8°C 87% Calm Calm -- 29.91 in1012.9 mb - 0.00 in0.0 mm 0.40 in10.2 mm
08:55 AM 57.1°F13.9°C 53.3°F11.8°C 87% Calm Calm -- 29.91 in1012.9 mb - 0.00 in0.0 mm 0.40 in10.2 mm
08:50 AM 57.1°F13.9°C 52.9°F11.6°C 86% Calm Calm -- 29.91 in1012.9 mb - 0.00 in0.0 mm 0.40 in10.2 mm
08:45 AM 57.0°F13.9°C 52.5°F11.4°C 85% Calm Calm -- 29.91 in1012.9 mb - 0.00 in0.0 mm 0.40 in10.2 mm
08:40 AM 57.0°F13.9°C 52.5°F11.4°C 85% Calm Calm -- 29.91 in1012.9 mb - 0.00 in0.0 mm 0.40 in10.2 mm
08:35 AM 56.9°F13.8°C 52.4°F11.3°C 85% 2.3 mph E3.7 kmh E 3.5 mph5.6 kmh 29.91 in1012.9 mb - 0.00 in0.0 mm 0.40 in10.2 mm
08:30 AM 56.7°F13.7°C 52.6°F11.4°C 86% 2.3 mph NE3.7 kmh NE 4.6 mph7.4 kmh 29.91 in1012.9 mb - 0.00 in0.0 mm 0.40 in10.2 mm
08:25 AM 56.5°F13.6°C 53.0°F11.7°C 88% 3.5 mph NE5.6 kmh NE 6.9 mph11.1 kmh 29.91 in1012.9 mb - 0.00 in0.0 mm 0.40 in10.2 mm
08:20 AM 56.4°F13.6°C 53.2°F11.8°C 89% 3.5 mph NE5.6 kmh NE 8.1 mph13.0 kmh 29.91 in1012.9 mb - 0.00 in0.0 mm 0.40 in10.2 mm
08:15 AM 56.3°F13.5°C 53.4°F11.9°C 90% 2.3 mph NE3.7 kmh NE 3.5 mph5.6 kmh 29.91 in1012.9 mb - 0.00 in0.0 mm 0.40 in10.2 mm
08:10 AM 56.3°F13.5°C 53.7°F12.1°C 91% 2.3 mph NE3.7 kmh NE 5.8 mph9.3 kmh 29.91 in1012.9 mb - 0.00 in0.0 mm 0.40 in10.2 mm
08:05 AM 56.4°F13.6°C 53.8°F12.1°C 91% 3.5 mph NE5.6 kmh NE 4.6 mph7.4 kmh 29.91 in1012.9 mb - 0.01 in0.3 mm 0.40 in10.2 mm
08:00 AM 56.6°F13.7°C 54.3°F12.4°C 92% 3.5 mph ENE5.6 kmh ENE 4.6 mph7.4 kmh 29.92 in1013.2 mb - 0.01 in0.3 mm 0.39 in9.9 mm
07:55 AM 56.7°F13.7°C 54.4°F12.4°C 92% 2.3 mph NE3.7 kmh NE 3.5 mph5.6 kmh 29.92 in1013.2 mb - 0.02 in0.5 mm 0.39 in9.9 mm
07:50 AM 56.7°F13.7°C 54.4°F12.4°C 92% 1.2 mph ESE1.9 kmh ESE 3.5 mph5.6 kmh 29.93 in1013.5 mb - 0.02 in0.5 mm 0.37 in9.4 mm
07:45 AM 56.6°F13.7°C 54.3°F12.4°C 92% Calm Calm 1.2 mph1.9 kmh 29.93 in1013.5 mb - 0.02 in0.5 mm 0.35 in8.9 mm
07:40 AM 56.6°F13.7°C 54.0°F12.2°C 91% 1.2 mph ESE1.9 kmh ESE 1.2 mph1.9 kmh 29.93 in1013.5 mb - 0.02 in0.5 mm 0.33 in8.4 mm
07:35 AM 56.7°F13.7°C 54.1°F12.3°C 91% 1.2 mph ESE1.9 kmh ESE 3.5 mph5.6 kmh 29.92 in1013.2 mb - 0.02 in0.5 mm 0.32 in8.1 mm
07:30 AM 56.7°F13.7°C 54.2°F12.3°C 91% 1.2 mph ESE1.9 kmh ESE 2.3 mph3.7 kmh 29.92 in1013.2 mb - 0.02 in0.5 mm 0.30 in7.6 mm
07:25 AM 56.8°F13.8°C 54.2°F12.3°C 91% 2.3 mph ESE3.7 kmh ESE 3.5 mph5.6 kmh 29.93 in1013.5 mb - 0.02 in0.5 mm 0.28 in7.1 mm
07:20 AM 56.9°F13.8°C 54.3°F12.4°C 91% 2.3 mph ESE3.7 kmh ESE 3.5 mph5.6 kmh 29.93 in1013.5 mb - 0.02 in0.5 mm 0.26 in6.6 mm
07:15 AM 57.0°F13.9°C 54.4°F12.4°C 91% 1.2 mph ESE1.9 kmh ESE 2.3 mph3.7 kmh 29.93 in1013.5 mb - 0.02 in0.5 mm 0.24 in6.1 mm
07:10 AM 57.1°F13.9°C 54.2°F12.3°C 90% 1.2 mph ESE1.9 kmh ESE 2.3 mph3.7 kmh 29.93 in1013.5 mb - 0.01 in0.3 mm 0.22 in5.6 mm
07:05 AM 57.3°F14.1°C 54.3°F12.4°C 90% 2.3 mph ESE3.7 kmh ESE 3.5 mph5.6 kmh 29.93 in1013.5 mb - 0.01 in0.3 mm 0.21 in5.3 mm
07:00 AM 57.4°F14.1°C 54.5°F12.5°C 90% Calm Calm 2.3 mph3.7 kmh 29.92 in1013.2 mb - 0.00 in0.0 mm 0.20 in5.1 mm
06:55 AM 57.6°F14.2°C 54.7°F12.6°C 90% 1.2 mph SSW1.9 kmh SSW 3.5 mph5.6 kmh 29.92 in1013.2 mb - 0.00 in0.0 mm 0.20 in5.1 mm
06:50 AM 57.6°F14.2°C 54.7°F12.6°C 90% Calm Calm 1.2 mph1.9 kmh 29.91 in1012.9 mb - 0.01 in0.3 mm 0.20 in5.1 mm
06:45 AM 57.6°F14.2°C 54.7°F12.6°C 90% Calm Calm -- 29.91 in1012.9 mb - 0.01 in0.3 mm 0.19 in4.8 mm
06:40 AM 57.6°F14.2°C 54.4°F12.4°C 89% Calm Calm 2.3 mph3.7 kmh 29.90 in1012.5 mb - 0.01 in0.3 mm 0.18 in4.6 mm
06:35 AM 57.6°F14.2°C 54.4°F12.4°C 89% Calm Calm 3.5 mph5.6 kmh 29.90 in1012.5 mb - 0.01 in0.3 mm 0.17 in4.3 mm
06:30 AM 57.6°F14.2°C 54.1°F12.3°C 88% Calm Calm -- 29.90 in1012.5 mb - 0.00 in0.0 mm 0.16 in4.1 mm
06:25 AM 57.5°F14.2°C 54.0°F12.2°C 88% Calm Calm -- 29.89 in1012.2 mb - 0.00 in0.0 mm 0.16 in4.1 mm
06:20 AM 57.5°F14.2°C 54.0°F12.2°C 88% Calm Calm -- 29.88 in1011.9 mb - 0.01 in0.3 mm 0.16 in4.1 mm
06:15 AM 57.4°F14.1°C 53.9°F12.2°C 88% Calm Calm 1.2 mph1.9 kmh 29.88 in1011.9 mb - 0.01 in0.3 mm 0.15 in3.8 mm
06:10 AM 57.4°F14.1°C 53.9°F12.2°C 88% Calm Calm -- 29.88 in1011.9 mb - 0.01 in0.3 mm 0.14 in3.6 mm
06:05 AM 57.4°F14.1°C 53.9°F12.2°C 88% Calm Calm -- 29.88 in1011.9 mb - 0.01 in0.3 mm 0.13 in3.3 mm
06:00 AM 57.4°F14.1°C 53.9°F12.2°C 88% 1.2 mph ENE1.9 kmh ENE 2.3 mph3.7 kmh 29.88 in1011.9 mb - 0.01 in0.3 mm 0.13 in3.3 mm
05:55 AM 57.4°F14.1°C 53.9°F12.2°C 88% 2.3 mph E3.7 kmh E 3.5 mph5.6 kmh 29.88 in1011.9 mb - 0.01 in0.3 mm 0.12 in3.0 mm
05:50 AM 57.4°F14.1°C 53.9°F12.2°C 88% 2.3 mph ESE3.7 kmh ESE 3.5 mph5.6 kmh 29.88 in1011.9 mb - 0.00 in0.0 mm 0.11 in2.8 mm
05:45 AM 57.4°F14.1°C 53.9°F12.2°C 88% Calm Calm 2.3 mph3.7 kmh 29.88 in1011.9 mb - 0.02 in0.5 mm 0.11 in2.8 mm
05:40 AM 57.5°F14.2°C 53.7°F12.1°C 87% Calm Calm 1.2 mph1.9 kmh 29.89 in1012.2 mb - 0.02 in0.5 mm 0.10 in2.5 mm
05:35 AM 57.6°F14.2°C 53.8°F12.1°C 87% 2.3 mph ESE3.7 kmh ESE 3.5 mph5.6 kmh 29.89 in1012.2 mb - 0.02 in0.5 mm 0.09 in2.3 mm
05:30 AM 57.7°F14.3°C 53.6°F12.0°C 86% 2.3 mph SE3.7 kmh SE 5.8 mph9.3 kmh 29.89 in1012.2 mb - 0.02 in0.5 mm 0.08 in2.0 mm
05:25 AM 58.0°F14.4°C 53.5°F11.9°C 85% 3.5 mph ESE5.6 kmh ESE 6.9 mph11.1 kmh 29.89 in1012.2 mb - 0.01 in0.3 mm 0.07 in1.8 mm
05:20 AM 58.3°F14.6°C 53.5°F11.9°C 84% 3.5 mph SE5.6 kmh SE 5.8 mph9.3 kmh 29.89 in1012.2 mb - 0.00 in0.0 mm 0.06 in1.5 mm
05:15 AM 58.7°F14.8°C 53.5°F11.9°C 83% Calm Calm 2.3 mph3.7 kmh 29.88 in1011.9 mb - 0.00 in0.0 mm 0.06 in1.5 mm
05:10 AM 58.8°F14.9°C 53.4°F11.9°C 82% Calm Calm 1.2 mph1.9 kmh 29.88 in1011.9 mb - 0.00 in0.0 mm 0.06 in1.5 mm
05:05 AM 58.8°F14.9°C 53.0°F11.7°C 81% 1.2 mph NW1.9 kmh NW 3.5 mph5.6 kmh 29.88 in1011.9 mb - 0.00 in0.0 mm 0.06 in1.5 mm
05:00 AM 58.6°F14.8°C 52.8°F11.6°C 81% 1.2 mph NW1.9 kmh NW 2.3 mph3.7 kmh 29.89 in1012.2 mb - 0.00 in0.0 mm 0.06 in1.5 mm
04:55 AM 58.5°F14.7°C 52.7°F11.5°C 81% 1.2 mph WNW1.9 kmh WNW 1.2 mph1.9 kmh 29.89 in1012.2 mb - 0.00 in0.0 mm 0.06 in1.5 mm
04:50 AM 58.5°F14.7°C 53.0°F11.7°C 82% 4.6 mph NNW7.4 kmh NNW 8.1 mph13.0 kmh 29.88 in1011.9 mb - 0.01 in0.3 mm 0.06 in1.5 mm
04:45 AM 58.5°F14.7°C 52.4°F11.3°C 80% 3.5 mph NE5.6 kmh NE 3.5 mph5.6 kmh 29.89 in1012.2 mb - 0.01 in0.3 mm 0.06 in1.5 mm
04:40 AM 58.7°F14.8°C 52.6°F11.4°C 80% 4.6 mph NE7.4 kmh NE 8.1 mph13.0 kmh 29.88 in1011.9 mb - 0.00 in0.0 mm 0.05 in1.3 mm
04:35 AM 59.0°F15.0°C 52.8°F11.6°C 80% 3.5 mph N5.6 kmh N 4.6 mph7.4 kmh 29.88 in1011.9 mb - 0.00 in0.0 mm 0.05 in1.3 mm
04:30 AM 59.4°F15.2°C 52.9°F11.6°C 79% 3.5 mph NNE5.6 kmh NNE 3.5 mph5.6 kmh 29.88 in1011.9 mb - 0.01 in0.3 mm 0.05 in1.3 mm
04:25 AM 59.8°F15.4°C 52.2°F11.2°C 76% 2.3 mph ENE3.7 kmh ENE 4.6 mph7.4 kmh 29.88 in1011.9 mb - 0.02 in0.5 mm 0.05 in1.3 mm
04:20 AM 60.2°F15.7°C 52.2°F11.2°C 75% 2.3 mph SW3.7 kmh SW 3.5 mph5.6 kmh 29.89 in1012.2 mb - 0.00 in0.0 mm 0.03 in0.8 mm
04:15 AM 60.5°F15.8°C 51.8°F11.0°C 73% 1.2 mph WNW1.9 kmh WNW 3.5 mph5.6 kmh 29.88 in1011.9 mb - 0.01 in0.3 mm 0.03 in0.8 mm
04:10 AM 61.1°F16.2°C 51.6°F10.9°C 71% 2.3 mph SW3.7 kmh SW 3.5 mph5.6 kmh 29.88 in1011.9 mb - 0.01 in0.3 mm 0.02 in0.5 mm
04:05 AM 61.6°F16.4°C 51.3°F10.7°C 69% 2.3 mph SW3.7 kmh SW 3.5 mph5.6 kmh 29.88 in1011.9 mb - 0.01 in0.3 mm 0.01 in0.3 mm
04:00 AM 61.9°F16.6°C 51.2°F10.7°C 68% 1.2 mph SE1.9 kmh SE 3.5 mph5.6 kmh 29.88 in1011.9 mb - 0.00 in0.0 mm 0.00 in0.0 mm
03:55 AM 62.1°F16.7°C 50.2°F10.1°C 65% 3.5 mph SE5.6 kmh SE 5.8 mph9.3 kmh 29.87 in1011.5 mb - 0.00 in0.0 mm 0.00 in0.0 mm
03:50 AM 62.2°F16.8°C 50.3°F10.2°C 65% 2.3 mph ENE3.7 kmh ENE 3.5 mph5.6 kmh 29.87 in1011.5 mb - 0.00 in0.0 mm 0.00 in0.0 mm
03:45 AM 62.1°F16.7°C 49.8°F9.9°C 64% 2.3 mph SE3.7 kmh SE 3.5 mph5.6 kmh 29.86 in1011.2 mb - 0.00 in0.0 mm 0.00 in0.0 mm
03:40 AM 62.3°F16.8°C 51.6°F10.9°C 68% Calm Calm 2.3 mph3.7 kmh 29.86 in1011.2 mb - 0.00 in0.0 mm 0.00 in0.0 mm
03:35 AM 62.4°F16.9°C 51.7°F10.9°C 68% 2.3 mph E3.7 kmh E 3.5 mph5.6 kmh 29.86 in1011.2 mb - 0.00 in0.0 mm 0.00 in0.0 mm
03:30 AM 62.5°F16.9°C 51.4°F10.8°C 67% 1.2 mph E1.9 kmh E 2.3 mph3.7 kmh 29.86 in1011.2 mb - 0.00 in0.0 mm 0.00 in0.0 mm
03:25 AM 62.2°F16.8°C 51.5°F10.8°C 68% 3.5 mph WNW5.6 kmh WNW 3.5 mph5.6 kmh 29.86 in1011.2 mb - 0.00 in0.0 mm 0.00 in0.0 mm
03:20 AM 62.1°F16.7°C 51.9°F11.1°C 69% 3.5 mph N5.6 kmh N 5.8 mph9.3 kmh 29.86 in1011.2 mb - 0.00 in0.0 mm 0.00 in0.0 mm
03:15 AM 62.2°F16.8°C 51.5°F10.8°C 68% Calm Calm 1.2 mph1.9 kmh 29.87 in1011.5 mb - 0.00 in0.0 mm 0.00 in0.0 mm
03:10 AM 62.4°F16.9°C 52.1°F11.2°C 69% 3.5 mph NW5.6 kmh NW 4.6 mph7.4 kmh 29.86 in1011.2 mb - 0.00 in0.0 mm 0.00 in0.0 mm
03:05 AM 62.9°F17.2°C 51.4°F10.8°C 66% 2.3 mph ENE3.7 kmh ENE 4.6 mph7.4 kmh 29.87 in1011.5 mb - 0.00 in0.0 mm 0.00 in0.0 mm
03:00 AM 63.3°F17.4°C 50.9°F10.5°C 64% 1.2 mph NE1.9 kmh NE 2.3 mph3.7 kmh 29.86 in1011.2 mb - 0.00 in0.0 mm 0.00 in0.0 mm
02:55 AM 63.7°F17.6°C 50.9°F10.5°C 63% 2.3 mph NE3.7 kmh NE 3.5 mph5.6 kmh 29.86 in1011.2 mb - 0.00 in0.0 mm 0.00 in0.0 mm
02:50 AM 64.1°F17.8°C 50.4°F10.2°C 61% 1.2 mph N1.9 kmh N 2.3 mph3.7 kmh 29.87 in1011.5 mb - 0.00 in0.0 mm 0.00 in0.0 mm
02:45 AM 64.4°F18.0°C 49.8°F9.9°C 59% 1.2 mph N1.9 kmh N 3.5 mph5.6 kmh 29.87 in1011.5 mb - 0.00 in0.0 mm 0.00 in0.0 mm
02:40 AM 64.7°F18.2°C 49.5°F9.7°C 58% 3.5 mph NW5.6 kmh NW 3.5 mph5.6 kmh 29.87 in1011.5 mb - 0.00 in0.0 mm 0.00 in0.0 mm
02:35 AM 65.0°F18.3°C 49.4°F9.7°C 57% Calm Calm 2.3 mph3.7 kmh 29.87 in1011.5 mb - 0.00 in0.0 mm 0.00 in0.0 mm
02:30 AM 65.3°F18.5°C 49.2°F9.6°C 56% Calm Calm 2.3 mph3.7 kmh 29.87 in1011.5 mb - 0.00 in0.0 mm 0.00 in0.0 mm
02:25 AM 65.6°F18.7°C 49.0°F9.4°C 55% 1.2 mph SW1.9 kmh SW 2.3 mph3.7 kmh 29.87 in1011.5 mb - 0.00 in0.0 mm 0.00 in0.0 mm
02:20 AM 65.8°F18.8°C 48.1°F8.9°C 53% 4.6 mph SSW7.4 kmh SSW 8.1 mph13.0 kmh 29.87 in1011.5 mb - 0.00 in0.0 mm 0.00 in0.0 mm
02:15 AM 66.0°F18.9°C 48.4°F9.1°C 53% 2.3 mph S3.7 kmh S 4.6 mph7.4 kmh 29.87 in1011.5 mb - 0.00 in0.0 mm 0.00 in0.0 mm
02:10 AM 66.1°F18.9°C 47.5°F8.6°C 51% 2.3 mph SSW3.7 kmh SSW 5.8 mph9.3 kmh 29.87 in1011.5 mb - 0.00 in0.0 mm 0.00 in0.0 mm
02:05 AM 66.2°F19.0°C 47.0°F8.3°C 50% 2.3 mph S3.7 kmh S 3.5 mph5.6 kmh 29.86 in1011.2 mb - 0.00 in0.0 mm 0.00 in0.0 mm
02:00 AM 66.4°F19.1°C 47.2°F8.4°C 50% 1.2 mph S1.9 kmh S 3.5 mph5.6 kmh 29.86 in1011.2 mb - 0.00 in0.0 mm 0.00 in0.0 mm
01:55 AM 66.5°F19.2°C 46.7°F8.2°C 49% 2.3 mph SE3.7 kmh SE 2.3 mph3.7 kmh 29.86 in1011.2 mb - 0.00 in0.0 mm 0.00 in0.0 mm
01:50 AM 66.4°F19.1°C 46.7°F8.2°C 49% 2.3 mph SE3.7 kmh SE 3.5 mph5.6 kmh 29.86 in1011.2 mb - 0.00 in0.0 mm 0.00 in0.0 mm
01:45 AM 66.3°F19.1°C 47.1°F8.4°C 50% 2.3 mph SE3.7 kmh SE 3.5 mph5.6 kmh 29.85 in1010.8 mb - 0.00 in0.0 mm 0.00 in0.0 mm
01:40 AM 66.4°F19.1°C 46.7°F8.2°C 49% 8.1 mph SE13.0 kmh SE 11.5 mph18.5 kmh 29.85 in1010.8 mb - 0.00 in0.0 mm 0.00 in0.0 mm
01:35 AM 66.4°F19.1°C 46.7°F8.2°C 49% 5.8 mph ESE9.3 kmh ESE 9.2 mph14.8 kmh 29.85 in1010.8 mb - 0.00 in0.0 mm 0.00 in0.0 mm
01:30 AM 66.5°F19.2°C 46.7°F8.2°C 49% 2.3 mph ESE3.7 kmh ESE 5.8 mph9.3 kmh 29.85 in1010.8 mb - 0.00 in0.0 mm 0.00 in0.0 mm
01:25 AM 66.6°F19.2°C 47.4°F8.6°C 50% 3.5 mph SE5.6 kmh SE 8.1 mph13.0 kmh 29.86 in1011.2 mb - 0.00 in0.0 mm 0.00 in0.0 mm
01:20 AM 66.7°F19.3°C 46.9°F8.3°C 49% 4.6 mph SSE7.4 kmh SSE 9.2 mph14.8 kmh 29.85 in1010.8 mb - 0.00 in0.0 mm 0.00 in0.0 mm
01:15 AM 66.7°F19.3°C 46.9°F8.3°C 49% 6.9 mph ESE11.1 kmh ESE 11.5 mph18.5 kmh 29.85 in1010.8 mb - 0.00 in0.0 mm 0.00 in0.0 mm
01:10 AM 66.7°F19.3°C 46.9°F8.3°C 49% 4.6 mph ESE7.4 kmh ESE 6.9 mph11.1 kmh 29.86 in1011.2 mb - 0.00 in0.0 mm 0.00 in0.0 mm
01:05 AM 66.6°F19.2°C 46.8°F8.2°C 49% 6.9 mph SE11.1 kmh SE 6.9 mph11.1 kmh 29.86 in1011.2 mb - 0.00 in0.0 mm 0.00 in0.0 mm
01:00 AM 65.9°F18.8°C 47.3°F8.5°C 51% 5.8 mph ESE9.3 kmh ESE 11.5 mph18.5 kmh 29.86 in1011.2 mb - 0.00 in0.0 mm 0.00 in0.0 mm
12:55 AM 66.1°F18.9°C 48.5°F9.2°C 53% 5.8 mph ESE9.3 kmh ESE 5.8 mph9.3 kmh 29.86 in1011.2 mb - 0.00 in0.0 mm 0.00 in0.0 mm
12:50 AM 66.1°F18.9°C 48.4°F9.1°C 53% 6.9 mph SE11.1 kmh SE 11.5 mph18.5 kmh 29.87 in1011.5 mb - 0.00 in0.0 mm 0.00 in0.0 mm
12:45 AM 65.5°F18.6°C 48.9°F9.4°C 55% 8.1 mph SE13.0 kmh SE 11.5 mph18.5 kmh 29.87 in1011.5 mb - 0.00 in0.0 mm 0.00 in0.0 mm
12:40 AM 64.4°F18.0°C 48.8°F9.3°C 57% 8.1 mph SE13.0 kmh SE 11.5 mph18.5 kmh 29.87 in1011.5 mb - 0.00 in0.0 mm 0.00 in0.0 mm
12:35 AM 63.0°F17.2°C 49.8°F9.9°C 62% 5.8 mph E9.3 kmh E 10.4 mph16.7 kmh 29.87 in1011.5 mb - 0.00 in0.0 mm 0.00 in0.0 mm
12:30 AM 61.8°F16.6°C 50.3°F10.2°C 66% 1.2 mph S1.9 kmh S -- 29.87 in1011.5 mb - 0.00 in0.0 mm 0.00 in0.0 mm
12:25 AM 61.0°F16.1°C 51.5°F10.8°C 71% 2.3 mph E3.7 kmh E 4.6 mph7.4 kmh 29.87 in1011.5 mb - 0.00 in0.0 mm 0.00 in0.0 mm
12:20 AM 61.0°F16.1°C 51.9°F11.1°C 72% 1.2 mph NE1.9 kmh NE 3.5 mph5.6 kmh 29.87 in1011.5 mb - 0.00 in0.0 mm 0.00 in0.0 mm
12:15 AM 61.0°F16.1°C 51.9°F11.1°C 72% 1.2 mph NE1.9 kmh NE -- 29.87 in1011.5 mb - 0.00 in0.0 mm 0.00 in0.0 mm
12:10 AM 60.8°F16.0°C 52.1°F11.2°C 73% 1.2 mph NE1.9 kmh NE 2.3 mph3.7 kmh 29.88 in1011.9 mb - 0.00 in0.0 mm 0.00 in0.0 mm
12:05 AM 60.2°F15.7°C 51.9°F11.1°C 74% Calm Calm 1.2 mph1.9 kmh 29.88 in1011.9 mb - 0.00 in0.0 mm 0.00 in0.0 mm
12:00 AM 60.2°F15.7°C 53.7°F12.1°C 79% 1.2 mph E1.9 kmh E 3.5 mph5.6 kmh 29.89 in1012.2 mb - 0.00 in0.0 mm 0.00 in0.0 mm